Woodworth, LA

5:19 AM CST on November 23, 2014 (GMT -0600)
Alexandria International | Change Station
CLOSE
Current Station
Airport
Location: Alexandria,
Elevation: 89 ft
Nearby Weather Stations
Active Advisory: Special Statement

Elev 89 ft 31.33 °N, 92.56 °W | Updated 26 minutes ago

Rain
Rain
63 °F
Feels Like 63 °F
N
10
Wind Variable Wind from East

Today
High -- | Low -- °F
--% Chance of Precip.
Yesterday
High -- | Low -- °F
Precip. -- in
6:44 AM 5:08 PM
New Moon, 1% visible
Pressure 29.65 in
Visibility 4.0 miles
Clouds Mostly Cloudy 700 ft
Overcast 4900 ft
Dew Point 62 °F
Humidity 97%
Rainfall 0.35 in
Snow Depth Not available.
UV 0 out of 12
Pollen 2.40 out of 12
Air Quality Not available.
Flu Activity Not available.
METAR KAEX 231053Z 09009KT 4SM +RA BR BKN007 OVC049 17/17 A2964 RMK AO2 PRESFR SLP039 P0021 T01720167

More Conditions Fewer Conditions

Pressure 29.65 in
Visibility 4.0 miles
Clouds Mostly Cloudy 700 ft
Overcast 4900 ft
Dew Point 62 °F
Humidity 97%
Rainfall 0.35 in
Snow Depth Not available.
UV 0 out of 12
Pollen 2.40 out of 12
Air Quality Not available.
Flu Activity Not available.
METAR KAEX 231053Z 09009KT 4SM +RA BR BKN007 OVC049 17/17 A2964 RMK AO2 PRESFR SLP039 P0021 T01720167

More Conditions Fewer Conditions

Nowcast | as of 2:54 am CST on November 23, 2014

Storms continue over the Gulf and along the coastal parishes in southern Louisiana. Elsewhere...rains and showers mixed cover a large portion of southeast Texas...southern Louisiana including the coastal waters. Storms will produce cloud to ground lightning and gusty winds. Rains will be heavy at times. Storms moving northeast this morning.

×

10-Day Weather Forecast

Almanac

Astronomy

Nov. 23, 2014 Rise Set
Actual Time
Civil Twilight
Nautical Twilight
Astronomical Twilight
Moon
Length of Visible Light
Length of Day
Tomorrow will be .
, % of the Moon is Illuminated

Today's Extremes

State Highs State Lows

Community

WunderPhotos

Upload Photos

1,773,036 photos uploaded!

WunderBlogs® & News

Nearby

Air Quality

  Air Quality AQ Index Pollutant
Not available.

Snow Depth

Station Depth Elevation

Earthquake Activity

City Distance Mag. Time & Date
Minimum magnitude displayed is 2.5.

Coastal Water Temperatures

Place Temperature

Nearby Weather Stations